Richibucto, Canada
Current Conditions -  °F | °C
As of 7:21 AM on Thursday 18 Dec 2014 (Local Time) from CYQM Reporting Station
Light Snow Light Snow  
Wind Chill: 23°   Ceiling: 300
Heat Index: 34°   Visibility: 2.2mi
Dew Point: 32°   Wind: 17mph
Humidity: 93%   Direction: 10°N
Pressure: 29.35"   Gusts: 26mph
Location:  46.68°N, 64.87°W
Report Text: CYQM 181121Z 01015G23KT 2 1/4SM -RASN BR OVC003 01/00 A2935 RMK SF8 SLP943
Loading
Personal Weather Stations






























Interactive Weather Map New forecast layout! Learn more

10-Day Weather Forecast

Advertisements
Track Severe Weather on mobile